sensor_id;sensor_type;location;lat;lon;timestamp;temperature;humidity
12720;DHT22;6424;48.520;11.228;2023-11-22T00:00:07;6.40;99.90
12720;DHT22;6424;48.520;11.228;2023-11-22T00:02:52;6.40;99.90
12720;DHT22;6424;48.520;11.228;2023-11-22T00:05:36;6.40;99.90
12720;DHT22;6424;48.520;11.228;2023-11-22T00:08:20;6.40;99.90
12720;DHT22;6424;48.520;11.228;2023-11-22T00:11:04;6.40;99.90
12720;DHT22;6424;48.520;11.228;2023-11-22T00:13:49;6.40;99.90
12720;DHT22;6424;48.520;11.228;2023-11-22T00:16:39;6.40;99.90
12720;DHT22;6424;48.520;11.228;2023-11-22T00:19:24;6.40;99.90
12720;DHT22;6424;48.520;11.228;2023-11-22T00:22:09;6.40;99.90
12720;DHT22;6424;48.520;11.228;2023-11-22T00:25:03;6.40;99.90
12720;DHT22;6424;48.520;11.228;2023-11-22T00:27:48;6.40;99.90
12720;DHT22;6424;48.520;11.228;2023-11-22T00:30:33;6.30;99.90
12720;DHT22;6424;48.520;11.228;2023-11-22T00:33:17;6.30;99.90
12720;DHT22;6424;48.520;11.228;2023-11-22T00:36:04;6.30;99.90
12720;DHT22;6424;48.520;11.228;2023-11-22T00:38:48;6.30;99.90
12720;DHT22;6424;48.520;11.228;2023-11-22T00:41:33;6.20;99.90
12720;DHT22;6424;48.520;11.228;2023-11-22T00:44:19;6.10;99.90
12720;DHT22;6424;48.520;11.228;2023-11-22T00:47:04;6.00;99.90
12720;DHT22;6424;48.520;11.228;2023-11-22T00:49:48;5.90;99.90
12720;DHT22;6424;48.520;11.228;2023-11-22T00:52:32;5.80;99.90
12720;DHT22;6424;48.520;11.228;2023-11-22T00:55:17;5.70;99.90
12720;DHT22;6424;48.520;11.228;2023-11-22T00:58:01;5.70;99.90
12720;DHT22;6424;48.520;11.228;2023-11-22T01:00:48;5.60;99.90
12720;DHT22;6424;48.520;11.228;2023-11-22T01:06:18;5.30;99.90
12720;DHT22;6424;48.520;11.228;2023-11-22T01:09:02;5.20;99.90
12720;DHT22;6424;48.520;11.228;2023-11-22T01:11:48;5.10;99.90
12720;DHT22;6424;48.520;11.228;2023-11-22T01:14:32;5.00;99.90
12720;DHT22;6424;48.520;11.228;2023-11-22T01:17:16;4.90;99.90
12720;DHT22;6424;48.520;11.228;2023-11-22T01:20:02;4.80;99.90
12720;DHT22;6424;48.520;11.228;2023-11-22T01:22:47;4.70;99.90
12720;DHT22;6424;48.520;11.228;2023-11-22T01:25:31;4.60;99.90
12720;DHT22;6424;48.520;11.228;2023-11-22T01:28:15;4.60;99.90
12720;DHT22;6424;48.520;11.228;2023-11-22T01:31:01;4.50;99.90
12720;DHT22;6424;48.520;11.228;2023-11-22T01:33:46;4.50;99.90
12720;DHT22;6424;48.520;11.228;2023-11-22T01:36:32;4.40;99.90
12720;DHT22;6424;48.520;11.228;2023-11-22T01:39:16;4.30;99.90
12720;DHT22;6424;48.520;11.228;2023-11-22T01:42:00;4.30;99.90
12720;DHT22;6424;48.520;11.228;2023-11-22T01:44:45;4.30;99.90
12720;DHT22;6424;48.520;11.228;2023-11-22T01:47:29;4.20;99.90
12720;DHT22;6424;48.520;11.228;2023-11-22T01:50:15;4.20;99.90
12720;DHT22;6424;48.520;11.228;2023-11-22T01:53:00;4.10;99.90
12720;DHT22;6424;48.520;11.228;2023-11-22T01:55:47;4.10;99.90
12720;DHT22;6424;48.520;11.228;2023-11-22T01:58:32;4.10;99.90
12720;DHT22;6424;48.520;11.228;2023-11-22T02:01:16;4.10;99.90
12720;DHT22;6424;48.520;11.228;2023-11-22T02:04:01;4.10;99.90
12720;DHT22;6424;48.520;11.228;2023-11-22T02:06:45;4.10;99.90
12720;DHT22;6424;48.520;11.228;2023-11-22T02:09:30;4.20;99.90
12720;DHT22;6424;48.520;11.228;2023-11-22T02:12:14;4.20;99.90
12720;DHT22;6424;48.520;11.228;2023-11-22T02:14:58;4.10;99.90
12720;DHT22;6424;48.520;11.228;2023-11-22T02:17:43;4.10;99.90
12720;DHT22;6424;48.520;11.228;2023-11-22T02:20:27;4.00;99.90
12720;DHT22;6424;48.520;11.228;2023-11-22T02:23:11;4.00;99.90
12720;DHT22;6424;48.520;11.228;2023-11-22T02:25:55;3.90;99.90
12720;DHT22;6424;48.520;11.228;2023-11-22T02:28:39;3.80;99.90
12720;DHT22;6424;48.520;11.228;2023-11-22T02:31:23;3.60;99.90
12720;DHT22;6424;48.520;11.228;2023-11-22T02:34:07;3.50;99.90
12720;DHT22;6424;48.520;11.228;2023-11-22T02:36:53;3.50;99.90
12720;DHT22;6424;48.520;11.228;2023-11-22T02:40:16;3.40;99.90
12720;DHT22;6424;48.520;11.228;2023-11-22T02:43:01;3.30;99.90
12720;DHT22;6424;48.520;11.228;2023-11-22T02:45:51;3.30;99.90
12720;DHT22;6424;48.520;11.228;2023-11-22T02:48:36;3.30;99.90
12720;DHT22;6424;48.520;11.228;2023-11-22T02:51:21;3.20;99.90
12720;DHT22;6424;48.520;11.228;2023-11-22T02:54:06;3.20;99.90
12720;DHT22;6424;48.520;11.228;2023-11-22T02:56:50;3.10;99.90
12720;DHT22;6424;48.520;11.228;2023-11-22T02:59:35;3.00;99.90
12720;DHT22;6424;48.520;11.228;2023-11-22T03:02:19;3.00;99.90
12720;DHT22;6424;48.520;11.228;2023-11-22T03:05:04;3.00;99.90
12720;DHT22;6424;48.520;11.228;2023-11-22T03:07:50;2.90;99.90
12720;DHT22;6424;48.520;11.228;2023-11-22T03:10:35;2.80;99.90
12720;DHT22;6424;48.520;11.228;2023-11-22T03:13:19;2.80;99.90
12720;DHT22;6424;48.520;11.228;2023-11-22T03:16:04;2.70;99.90
12720;DHT22;6424;48.520;11.228;2023-11-22T03:18:48;2.70;99.90
12720;DHT22;6424;48.520;11.228;2023-11-22T03:21:34;2.70;99.90
12720;DHT22;6424;48.520;11.228;2023-11-22T03:24:20;2.70;99.90
12720;DHT22;6424;48.520;11.228;2023-11-22T03:27:04;2.70;99.90
12720;DHT22;6424;48.520;11.228;2023-11-22T03:29:50;2.70;99.90
12720;DHT22;6424;48.520;11.228;2023-11-22T03:32:34;2.80;99.90
12720;DHT22;6424;48.520;11.228;2023-11-22T03:35:21;2.80;99.90
12720;DHT22;6424;48.520;11.228;2023-11-22T03:38:06;2.80;99.90
12720;DHT22;6424;48.520;11.228;2023-11-22T03:40:50;2.90;99.90
12720;DHT22;6424;48.520;11.228;2023-11-22T03:43:34;2.90;99.90
12720;DHT22;6424;48.520;11.228;2023-11-22T03:46:18;2.90;99.90
12720;DHT22;6424;48.520;11.228;2023-11-22T03:49:06;3.00;99.90
12720;DHT22;6424;48.520;11.228;2023-11-22T03:51:51;3.00;99.90
12720;DHT22;6424;48.520;11.228;2023-11-22T03:54:35;2.90;99.90
12720;DHT22;6424;48.520;11.228;2023-11-22T03:57:19;3.00;99.90
12720;DHT22;6424;48.520;11.228;2023-11-22T04:00:04;3.00;99.90
12720;DHT22;6424;48.520;11.228;2023-11-22T04:02:50;2.90;99.90
12720;DHT22;6424;48.520;11.228;2023-11-22T04:05:34;2.90;99.90
12720;DHT22;6424;48.520;11.228;2023-11-22T04:08:18;2.90;99.90
12720;DHT22;6424;48.520;11.228;2023-11-22T04:11:04;2.90;99.90
12720;DHT22;6424;48.520;11.228;2023-11-22T04:13:49;2.90;99.90
12720;DHT22;6424;48.520;11.228;2023-11-22T04:16:33;2.90;99.90
12720;DHT22;6424;48.520;11.228;2023-11-22T04:19:17;3.00;99.90
12720;DHT22;6424;48.520;11.228;2023-11-22T04:22:02;3.00;99.90
12720;DHT22;6424;48.520;11.228;2023-11-22T04:24:46;3.00;99.90
12720;DHT22;6424;48.520;11.228;2023-11-22T04:27:30;3.00;99.90
12720;DHT22;6424;48.520;11.228;2023-11-22T04:30:15;3.00;99.90
12720;DHT22;6424;48.520;11.228;2023-11-22T04:33:01;3.00;99.90
12720;DHT22;6424;48.520;11.228;2023-11-22T04:35:46;2.90;99.90
12720;DHT22;6424;48.520;11.228;2023-11-22T04:38:30;2.90;99.90
12720;DHT22;6424;48.520;11.228;2023-11-22T04:41:15;2.90;99.90
12720;DHT22;6424;48.520;11.228;2023-11-22T04:43:59;2.90;99.90
12720;DHT22;6424;48.520;11.228;2023-11-22T04:46:43;2.90;99.90
12720;DHT22;6424;48.520;11.228;2023-11-22T04:49:28;2.90;99.90
12720;DHT22;6424;48.520;11.228;2023-11-22T04:52:13;2.90;99.90
12720;DHT22;6424;48.520;11.228;2023-11-22T04:54:57;2.90;99.90
12720;DHT22;6424;48.520;11.228;2023-11-22T04:57:42;2.90;99.90
12720;DHT22;6424;48.520;11.228;2023-11-22T05:00:27;2.80;99.90
12720;DHT22;6424;48.520;11.228;2023-11-22T05:03:11;2.80;99.90
12720;DHT22;6424;48.520;11.228;2023-11-22T05:05:55;2.60;99.90
12720;DHT22;6424;48.520;11.228;2023-11-22T05:08:40;2.60;99.90
12720;DHT22;6424;48.520;11.228;2023-11-22T05:11:24;2.60;99.90
12720;DHT22;6424;48.520;11.228;2023-11-22T05:14:08;2.60;99.90
12720;DHT22;6424;48.520;11.228;2023-11-22T05:16:52;2.50;99.90
12720;DHT22;6424;48.520;11.228;2023-11-22T05:22:22;2.40;99.90
12720;DHT22;6424;48.520;11.228;2023-11-22T05:25:06;2.40;99.90
12720;DHT22;6424;48.520;11.228;2023-11-22T05:27:51;2.30;99.90
12720;DHT22;6424;48.520;11.228;2023-11-22T05:30:35;2.20;99.90
12720;DHT22;6424;48.520;11.228;2023-11-22T05:33:19;2.10;99.90
12720;DHT22;6424;48.520;11.228;2023-11-22T05:36:03;2.10;99.90
12720;DHT22;6424;48.520;11.228;2023-11-22T05:38:48;2.00;99.90
12720;DHT22;6424;48.520;11.228;2023-11-22T05:41:33;2.00;99.90
12720;DHT22;6424;48.520;11.228;2023-11-22T05:44:18;1.90;99.90
12720;DHT22;6424;48.520;11.228;2023-11-22T05:47:02;2.00;99.90
12720;DHT22;6424;48.520;11.228;2023-11-22T05:49:47;1.90;99.90
12720;DHT22;6424;48.520;11.228;2023-11-22T05:52:31;1.90;99.90
12720;DHT22;6424;48.520;11.228;2023-11-22T05:55:15;1.80;99.90
12720;DHT22;6424;48.520;11.228;2023-11-22T05:58:00;1.70;99.90
12720;DHT22;6424;48.520;11.228;2023-11-22T06:00:45;1.70;99.90
12720;DHT22;6424;48.520;11.228;2023-11-22T06:03:29;1.70;99.90
12720;DHT22;6424;48.520;11.228;2023-11-22T06:06:14;1.70;99.90
12720;DHT22;6424;48.520;11.228;2023-11-22T06:08:58;1.70;99.90
12720;DHT22;6424;48.520;11.228;2023-11-22T06:11:44;1.70;99.90
12720;DHT22;6424;48.520;11.228;2023-11-22T06:14:28;1.70;99.90
12720;DHT22;6424;48.520;11.228;2023-11-22T06:17:13;1.70;99.90
12720;DHT22;6424;48.520;11.228;2023-11-22T06:19:58;1.70;99.90
12720;DHT22;6424;48.520;11.228;2023-11-22T06:22:42;1.70;99.90
12720;DHT22;6424;48.520;11.228;2023-11-22T06:25:26;1.70;99.90
12720;DHT22;6424;48.520;11.228;2023-11-22T06:28:11;1.70;99.90
12720;DHT22;6424;48.520;11.228;2023-11-22T06:30:56;1.70;99.90
12720;DHT22;6424;48.520;11.228;2023-11-22T06:33:41;1.60;99.90
12720;DHT22;6424;48.520;11.228;2023-11-22T06:36:26;1.60;99.90
12720;DHT22;6424;48.520;11.228;2023-11-22T06:39:10;1.50;99.90
12720;DHT22;6424;48.520;11.228;2023-11-22T06:41:57;1.50;99.90
12720;DHT22;6424;48.520;11.228;2023-11-22T06:44:42;1.50;99.90
12720;DHT22;6424;48.520;11.228;2023-11-22T06:47:27;1.50;99.90
12720;DHT22;6424;48.520;11.228;2023-11-22T06:50:11;1.50;99.90
12720;DHT22;6424;48.520;11.228;2023-11-22T06:52:56;1.50;99.90
12720;DHT22;6424;48.520;11.228;2023-11-22T06:55:40;1.50;99.90
12720;DHT22;6424;48.520;11.228;2023-11-22T06:58:24;1.40;99.90
12720;DHT22;6424;48.520;11.228;2023-11-22T07:01:08;1.50;99.90
12720;DHT22;6424;48.520;11.228;2023-11-22T07:03:54;1.50;99.90
12720;DHT22;6424;48.520;11.228;2023-11-22T07:06:38;1.40;99.90
12720;DHT22;6424;48.520;11.228;2023-11-22T07:09:23;1.40;99.90
12720;DHT22;6424;48.520;11.228;2023-11-22T07:12:07;1.40;99.90
12720;DHT22;6424;48.520;11.228;2023-11-22T07:14:51;1.30;99.90
12720;DHT22;6424;48.520;11.228;2023-11-22T07:17:36;1.30;99.90
12720;DHT22;6424;48.520;11.228;2023-11-22T07:20:20;1.40;99.90
12720;DHT22;6424;48.520;11.228;2023-11-22T07:23:05;1.40;99.90
12720;DHT22;6424;48.520;11.228;2023-11-22T07:25:49;1.50;99.90
12720;DHT22;6424;48.520;11.228;2023-11-22T07:28:34;1.50;99.90
12720;DHT22;6424;48.520;11.228;2023-11-22T07:31:20;1.50;99.90
12720;DHT22;6424;48.520;11.228;2023-11-22T07:34:05;1.50;99.90
12720;DHT22;6424;48.520;11.228;2023-11-22T07:36:50;1.60;99.90
12720;DHT22;6424;48.520;11.228;2023-11-22T07:39:35;1.50;99.90
12720;DHT22;6424;48.520;11.228;2023-11-22T07:42:20;1.50;99.90
12720;DHT22;6424;48.520;11.228;2023-11-22T07:45:04;1.60;99.90
12720;DHT22;6424;48.520;11.228;2023-11-22T07:47:49;1.60;99.90
12720;DHT22;6424;48.520;11.228;2023-11-22T07:50:33;1.60;99.90
12720;DHT22;6424;48.520;11.228;2023-11-22T07:53:18;1.60;99.90
12720;DHT22;6424;48.520;11.228;2023-11-22T07:56:03;1.60;99.90
12720;DHT22;6424;48.520;11.228;2023-11-22T07:58:48;1.70;99.90
12720;DHT22;6424;48.520;11.228;2023-11-22T08:01:32;1.60;99.90
12720;DHT22;6424;48.520;11.228;2023-11-22T08:04:17;1.60;99.90
12720;DHT22;6424;48.520;11.228;2023-11-22T08:07:01;1.60;99.90
12720;DHT22;6424;48.520;11.228;2023-11-22T08:09:46;1.70;99.90
12720;DHT22;6424;48.520;11.228;2023-11-22T08:12:31;1.70;99.90
12720;DHT22;6424;48.520;11.228;2023-11-22T08:15:17;1.80;99.90
12720;DHT22;6424;48.520;11.228;2023-11-22T08:18:03;1.80;99.90
12720;DHT22;6424;48.520;11.228;2023-11-22T08:20:50;1.80;99.90
12720;DHT22;6424;48.520;11.228;2023-11-22T08:23:34;1.80;99.90
12720;DHT22;6424;48.520;11.228;2023-11-22T08:26:18;1.80;99.90
12720;DHT22;6424;48.520;11.228;2023-11-22T08:29:02;1.80;99.90
12720;DHT22;6424;48.520;11.228;2023-11-22T08:31:48;1.80;99.90
12720;DHT22;6424;48.520;11.228;2023-11-22T08:34:34;1.80;99.90
12720;DHT22;6424;48.520;11.228;2023-11-22T08:37:19;1.70;99.90
12720;DHT22;6424;48.520;11.228;2023-11-22T08:40:04;1.80;99.90
12720;DHT22;6424;48.520;11.228;2023-11-22T08:42:49;1.80;99.90
12720;DHT22;6424;48.520;11.228;2023-11-22T08:45:34;1.80;99.90
12720;DHT22;6424;48.520;11.228;2023-11-22T08:48:19;1.80;99.90
12720;DHT22;6424;48.520;11.228;2023-11-22T08:51:04;1.70;99.90
12720;DHT22;6424;48.520;11.228;2023-11-22T08:53:48;1.70;99.90
12720;DHT22;6424;48.520;11.228;2023-11-22T08:56:33;1.70;99.90
12720;DHT22;6424;48.520;11.228;2023-11-22T08:59:19;1.70;99.90
12720;DHT22;6424;48.520;11.228;2023-11-22T09:02:04;1.80;99.90
12720;DHT22;6424;48.520;11.228;2023-11-22T09:04:49;1.80;99.90
12720;DHT22;6424;48.520;11.228;2023-11-22T09:07:36;1.90;99.90
12720;DHT22;6424;48.520;11.228;2023-11-22T09:10:22;1.80;99.90
12720;DHT22;6424;48.520;11.228;2023-11-22T09:13:06;1.80;99.90
12720;DHT22;6424;48.520;11.228;2023-11-22T09:15:50;1.80;99.90
12720;DHT22;6424;48.520;11.228;2023-11-22T09:18:34;1.80;99.90
12720;DHT22;6424;48.520;11.228;2023-11-22T09:21:18;1.80;99.90
12720;DHT22;6424;48.520;11.228;2023-11-22T09:24:03;1.80;99.90
12720;DHT22;6424;48.520;11.228;2023-11-22T09:26:49;1.80;99.90
12720;DHT22;6424;48.520;11.228;2023-11-22T09:29:34;1.80;99.90
12720;DHT22;6424;48.520;11.228;2023-11-22T09:32:18;1.80;99.90
12720;DHT22;6424;48.520;11.228;2023-11-22T09:35:03;1.80;99.90
12720;DHT22;6424;48.520;11.228;2023-11-22T09:37:47;1.80;99.90
12720;DHT22;6424;48.520;11.228;2023-11-22T09:40:31;1.80;99.90
12720;DHT22;6424;48.520;11.228;2023-11-22T09:43:17;1.80;99.90
12720;DHT22;6424;48.520;11.228;2023-11-22T09:46:03;1.80;99.90
12720;DHT22;6424;48.520;11.228;2023-11-22T09:48:47;1.80;99.90
12720;DHT22;6424;48.520;11.228;2023-11-22T09:51:37;1.90;99.90
12720;DHT22;6424;48.520;11.228;2023-11-22T09:54:24;1.90;99.90
12720;DHT22;6424;48.520;11.228;2023-11-22T09:57:13;1.90;99.90
12720;DHT22;6424;48.520;11.228;2023-11-22T10:00:01;1.90;99.90
12720;DHT22;6424;48.520;11.228;2023-11-22T10:02:45;1.90;99.90
12720;DHT22;6424;48.520;11.228;2023-11-22T10:05:30;1.90;99.90
12720;DHT22;6424;48.520;11.228;2023-11-22T10:08:14;2.00;99.90
12720;DHT22;6424;48.520;11.228;2023-11-22T10:11:01;2.10;99.90
12720;DHT22;6424;48.520;11.228;2023-11-22T10:13:48;2.10;99.90
12720;DHT22;6424;48.520;11.228;2023-11-22T10:16:34;2.10;99.90
12720;DHT22;6424;48.520;11.228;2023-11-22T10:19:18;2.10;99.90
12720;DHT22;6424;48.520;11.228;2023-11-22T10:22:04;2.10;99.90
12720;DHT22;6424;48.520;11.228;2023-11-22T10:24:48;2.10;99.90
12720;DHT22;6424;48.520;11.228;2023-11-22T10:27:33;2.20;99.90
12720;DHT22;6424;48.520;11.228;2023-11-22T10:30:18;2.30;99.90
12720;DHT22;6424;48.520;11.228;2023-11-22T10:33:03;2.30;99.90
12720;DHT22;6424;48.520;11.228;2023-11-22T10:35:49;2.30;99.90
12720;DHT22;6424;48.520;11.228;2023-11-22T10:38:34;2.30;99.90
12720;DHT22;6424;48.520;11.228;2023-11-22T10:41:20;2.30;99.90
12720;DHT22;6424;48.520;11.228;2023-11-22T10:44:06;2.30;99.90
12720;DHT22;6424;48.520;11.228;2023-11-22T10:46:51;2.40;99.90
12720;DHT22;6424;48.520;11.228;2023-11-22T10:49:36;2.40;99.90
12720;DHT22;6424;48.520;11.228;2023-11-22T10:52:22;2.40;99.90
12720;DHT22;6424;48.520;11.228;2023-11-22T10:55:11;2.40;99.90
12720;DHT22;6424;48.520;11.228;2023-11-22T10:58:01;2.40;99.90
12720;DHT22;6424;48.520;11.228;2023-11-22T11:00:46;2.40;99.90
12720;DHT22;6424;48.520;11.228;2023-11-22T11:03:31;2.40;99.90
12720;DHT22;6424;48.520;11.228;2023-11-22T11:06:26;2.40;99.90
12720;DHT22;6424;48.520;11.228;2023-11-22T11:09:13;2.40;99.90
12720;DHT22;6424;48.520;11.228;2023-11-22T11:12:01;2.40;99.90
12720;DHT22;6424;48.520;11.228;2023-11-22T11:14:48;2.40;99.90
12720;DHT22;6424;48.520;11.228;2023-11-22T11:17:34;2.50;99.90
12720;DHT22;6424;48.520;11.228;2023-11-22T11:20:19;2.50;99.90
12720;DHT22;6424;48.520;11.228;2023-11-22T11:23:03;2.50;99.90
12720;DHT22;6424;48.520;11.228;2023-11-22T11:25:53;2.50;99.90
12720;DHT22;6424;48.520;11.228;2023-11-22T11:28:42;2.50;99.90
12720;DHT22;6424;48.520;11.228;2023-11-22T11:31:32;2.40;99.90
12720;DHT22;6424;48.520;11.228;2023-11-22T11:34:23;2.40;99.90
12720;DHT22;6424;48.520;11.228;2023-11-22T11:37:11;2.50;99.90
12720;DHT22;6424;48.520;11.228;2023-11-22T11:39:58;2.50;99.90
12720;DHT22;6424;48.520;11.228;2023-11-22T11:42:43;2.50;99.90
12720;DHT22;6424;48.520;11.228;2023-11-22T11:45:28;2.50;99.90
12720;DHT22;6424;48.520;11.228;2023-11-22T11:48:14;2.50;99.90
12720;DHT22;6424;48.520;11.228;2023-11-22T11:51:01;2.50;99.90
12720;DHT22;6424;48.520;11.228;2023-11-22T11:53:46;2.50;99.90
12720;DHT22;6424;48.520;11.228;2023-11-22T11:56:31;2.50;99.90
12720;DHT22;6424;48.520;11.228;2023-11-22T11:59:17;2.60;99.90
12720;DHT22;6424;48.520;11.228;2023-11-22T12:02:02;2.60;99.90
12720;DHT22;6424;48.520;11.228;2023-11-22T12:04:49;2.50;99.90
12720;DHT22;6424;48.520;11.228;2023-11-22T12:07:33;2.50;99.90
12720;DHT22;6424;48.520;11.228;2023-11-22T12:10:17;2.50;99.90
12720;DHT22;6424;48.520;11.228;2023-11-22T12:13:01;2.30;99.90
12720;DHT22;6424;48.520;11.228;2023-11-22T12:15:46;2.20;99.90
12720;DHT22;6424;48.520;11.228;2023-11-22T12:18:44;2.20;99.90
12720;DHT22;6424;48.520;11.228;2023-11-22T12:21:30;2.20;99.90
12720;DHT22;6424;48.520;11.228;2023-11-22T12:24:15;2.20;99.90
12720;DHT22;6424;48.520;11.228;2023-11-22T12:26:59;2.20;99.90
12720;DHT22;6424;48.520;11.228;2023-11-22T12:29:46;2.20;99.90
12720;DHT22;6424;48.520;11.228;2023-11-22T12:32:31;2.20;99.90
12720;DHT22;6424;48.520;11.228;2023-11-22T12:35:15;2.20;99.90
12720;DHT22;6424;48.520;11.228;2023-11-22T12:38:00;2.20;99.90
12720;DHT22;6424;48.520;11.228;2023-11-22T12:40:46;2.20;99.90
12720;DHT22;6424;48.520;11.228;2023-11-22T12:43:30;2.30;99.90
12720;DHT22;6424;48.520;11.228;2023-11-22T12:46:15;2.20;99.90
12720;DHT22;6424;48.520;11.228;2023-11-22T12:49:06;2.20;99.90
12720;DHT22;6424;48.520;11.228;2023-11-22T12:51:53;2.20;99.90
12720;DHT22;6424;48.520;11.228;2023-11-22T12:54:37;2.20;99.90
12720;DHT22;6424;48.520;11.228;2023-11-22T12:57:23;2.20;99.90
12720;DHT22;6424;48.520;11.228;2023-11-22T13:00:07;2.20;99.90
12720;DHT22;6424;48.520;11.228;2023-11-22T13:02:52;2.30;99.90
12720;DHT22;6424;48.520;11.228;2023-11-22T13:05:36;2.30;99.90
12720;DHT22;6424;48.520;11.228;2023-11-22T13:08:21;2.30;99.90
12720;DHT22;6424;48.520;11.228;2023-11-22T13:11:13;2.40;99.90
12720;DHT22;6424;48.520;11.228;2023-11-22T13:13:57;2.40;99.90
12720;DHT22;6424;48.520;11.228;2023-11-22T13:16:41;2.40;99.90
12720;DHT22;6424;48.520;11.228;2023-11-22T13:19:26;2.40;99.90
12720;DHT22;6424;48.520;11.228;2023-11-22T13:22:11;2.40;99.90
12720;DHT22;6424;48.520;11.228;2023-11-22T13:24:56;2.40;99.90
12720;DHT22;6424;48.520;11.228;2023-11-22T13:27:42;2.30;99.90
12720;DHT22;6424;48.520;11.228;2023-11-22T13:30:27;2.20;99.90
12720;DHT22;6424;48.520;11.228;2023-11-22T13:33:11;2.20;99.90
12720;DHT22;6424;48.520;11.228;2023-11-22T13:35:57;2.20;99.90
12720;DHT22;6424;48.520;11.228;2023-11-22T13:38:42;2.20;99.90
12720;DHT22;6424;48.520;11.228;2023-11-22T13:41:27;2.20;99.90
12720;DHT22;6424;48.520;11.228;2023-11-22T13:44:11;2.20;99.90
12720;DHT22;6424;48.520;11.228;2023-11-22T13:46:55;2.20;99.90
12720;DHT22;6424;48.520;11.228;2023-11-22T13:49:40;2.20;99.90
12720;DHT22;6424;48.520;11.228;2023-11-22T13:52:26;2.20;99.90
12720;DHT22;6424;48.520;11.228;2023-11-22T13:55:10;2.10;99.90
12720;DHT22;6424;48.520;11.228;2023-11-22T13:57:58;2.10;99.90
12720;DHT22;6424;48.520;11.228;2023-11-22T14:00:44;2.00;99.90
12720;DHT22;6424;48.520;11.228;2023-11-22T14:03:31;2.10;99.90
12720;DHT22;6424;48.520;11.228;2023-11-22T14:06:16;2.10;99.90
12720;DHT22;6424;48.520;11.228;2023-11-22T14:09:00;2.10;99.90
12720;DHT22;6424;48.520;11.228;2023-11-22T14:11:44;2.10;99.90
12720;DHT22;6424;48.520;11.228;2023-11-22T14:14:29;2.20;99.90
12720;DHT22;6424;48.520;11.228;2023-11-22T14:17:13;2.10;99.90
12720;DHT22;6424;48.520;11.228;2023-11-22T14:19:58;2.10;99.90
12720;DHT22;6424;48.520;11.228;2023-11-22T14:22:43;2.10;99.90
12720;DHT22;6424;48.520;11.228;2023-11-22T14:25:27;2.10;99.90
12720;DHT22;6424;48.520;11.228;2023-11-22T14:28:13;2.20;99.90
12720;DHT22;6424;48.520;11.228;2023-11-22T14:30:58;2.20;99.90
12720;DHT22;6424;48.520;11.228;2023-11-22T14:33:42;2.30;99.90
12720;DHT22;6424;48.520;11.228;2023-11-22T14:36:26;2.30;99.90
12720;DHT22;6424;48.520;11.228;2023-11-22T14:39:10;2.40;99.90
12720;DHT22;6424;48.520;11.228;2023-11-22T14:41:58;2.40;99.90
12720;DHT22;6424;48.520;11.228;2023-11-22T14:44:42;2.40;99.90
12720;DHT22;6424;48.520;11.228;2023-11-22T14:47:27;2.30;99.90
12720;DHT22;6424;48.520;11.228;2023-11-22T14:50:15;2.30;99.90
12720;DHT22;6424;48.520;11.228;2023-11-22T14:53:00;2.30;99.90
12720;DHT22;6424;48.520;11.228;2023-11-22T14:55:44;2.30;99.90
12720;DHT22;6424;48.520;11.228;2023-11-22T14:58:29;2.20;99.90
12720;DHT22;6424;48.520;11.228;2023-11-22T15:01:14;2.20;99.90
12720;DHT22;6424;48.520;11.228;2023-11-22T15:03:58;2.10;99.90
12720;DHT22;6424;48.520;11.228;2023-11-22T15:06:43;2.10;99.90
12720;DHT22;6424;48.520;11.228;2023-11-22T15:09:29;2.10;99.90
12720;DHT22;6424;48.520;11.228;2023-11-22T15:12:16;2.10;99.90
12720;DHT22;6424;48.520;11.228;2023-11-22T15:15:00;2.10;99.90
12720;DHT22;6424;48.520;11.228;2023-11-22T15:17:45;2.10;99.90
12720;DHT22;6424;48.520;11.228;2023-11-22T15:20:29;2.10;99.90
12720;DHT22;6424;48.520;11.228;2023-11-22T15:23:14;2.10;99.90
12720;DHT22;6424;48.520;11.228;2023-11-22T15:25:58;2.10;99.90
12720;DHT22;6424;48.520;11.228;2023-11-22T15:28:43;2.10;99.90
12720;DHT22;6424;48.520;11.228;2023-11-22T15:31:30;2.20;99.90
12720;DHT22;6424;48.520;11.228;2023-11-22T15:34:14;2.20;99.90
12720;DHT22;6424;48.520;11.228;2023-11-22T15:36:58;2.20;99.90
12720;DHT22;6424;48.520;11.228;2023-11-22T15:39:43;2.20;99.90
12720;DHT22;6424;48.520;11.228;2023-11-22T15:42:28;2.20;99.90
12720;DHT22;6424;48.520;11.228;2023-11-22T15:45:13;2.30;99.90
12720;DHT22;6424;48.520;11.228;2023-11-22T15:47:57;2.30;99.90
12720;DHT22;6424;48.520;11.228;2023-11-22T15:50:41;2.30;99.90
12720;DHT22;6424;48.520;11.228;2023-11-22T15:53:26;2.40;99.90
12720;DHT22;6424;48.520;11.228;2023-11-22T15:56:10;2.40;99.90
12720;DHT22;6424;48.520;11.228;2023-11-22T15:59:03;2.40;99.90
12720;DHT22;6424;48.520;11.228;2023-11-22T16:01:47;2.40;99.90
12720;DHT22;6424;48.520;11.228;2023-11-22T16:04:32;2.50;99.90
12720;DHT22;6424;48.520;11.228;2023-11-22T16:07:16;2.40;99.90
12720;DHT22;6424;48.520;11.228;2023-11-22T16:10:01;2.50;99.90
12720;DHT22;6424;48.520;11.228;2023-11-22T16:12:46;2.40;99.90
12720;DHT22;6424;48.520;11.228;2023-11-22T16:15:30;2.40;99.90
12720;DHT22;6424;48.520;11.228;2023-11-22T16:18:15;2.40;99.90
12720;DHT22;6424;48.520;11.228;2023-11-22T16:21:01;2.40;99.90
12720;DHT22;6424;48.520;11.228;2023-11-22T16:23:46;2.50;99.90
12720;DHT22;6424;48.520;11.228;2023-11-22T16:26:30;2.40;99.90
12720;DHT22;6424;48.520;11.228;2023-11-22T16:29:14;2.40;99.90
12720;DHT22;6424;48.520;11.228;2023-11-22T16:31:58;2.40;99.90
12720;DHT22;6424;48.520;11.228;2023-11-22T16:34:45;2.40;99.90
12720;DHT22;6424;48.520;11.228;2023-11-22T16:37:29;2.40;99.90
12720;DHT22;6424;48.520;11.228;2023-11-22T16:40:13;2.40;99.90
12720;DHT22;6424;48.520;11.228;2023-11-22T16:42:59;2.40;99.90
12720;DHT22;6424;48.520;11.228;2023-11-22T16:45:47;2.40;99.90
12720;DHT22;6424;48.520;11.228;2023-11-22T16:48:31;2.40;99.90
12720;DHT22;6424;48.520;11.228;2023-11-22T16:51:16;2.40;99.90
12720;DHT22;6424;48.520;11.228;2023-11-22T16:54:00;2.40;99.90
12720;DHT22;6424;48.520;11.228;2023-11-22T16:56:46;2.40;99.90
12720;DHT22;6424;48.520;11.228;2023-11-22T16:59:30;2.40;99.90
12720;DHT22;6424;48.520;11.228;2023-11-22T17:02:14;2.40;99.90
12720;DHT22;6424;48.520;11.228;2023-11-22T17:05:02;2.40;99.90
12720;DHT22;6424;48.520;11.228;2023-11-22T17:07:47;2.40;99.90
12720;DHT22;6424;48.520;11.228;2023-11-22T17:10:32;2.40;99.90
12720;DHT22;6424;48.520;11.228;2023-11-22T17:13:16;2.40;99.90
12720;DHT22;6424;48.520;11.228;2023-11-22T17:16:00;2.40;99.90
12720;DHT22;6424;48.520;11.228;2023-11-22T17:18:45;2.40;99.90
12720;DHT22;6424;48.520;11.228;2023-11-22T17:21:29;2.40;99.90
12720;DHT22;6424;48.520;11.228;2023-11-22T17:24:13;2.40;99.90
12720;DHT22;6424;48.520;11.228;2023-11-22T17:26:57;2.40;99.90
12720;DHT22;6424;48.520;11.228;2023-11-22T17:29:41;2.40;99.90
12720;DHT22;6424;48.520;11.228;2023-11-22T17:32:25;2.30;99.90
12720;DHT22;6424;48.520;11.228;2023-11-22T17:35:10;2.30;99.90
12720;DHT22;6424;48.520;11.228;2023-11-22T17:37:56;2.30;99.90
12720;DHT22;6424;48.520;11.228;2023-11-22T17:40:44;2.30;99.90
12720;DHT22;6424;48.520;11.228;2023-11-22T17:43:28;2.30;99.90